LFRM/LME METAR and TAF weather

Enter ICAO airport designator
Station Type Date Time Source
LFRM METAR 2022/01/26 21:00 UTC NOAA

LFRM 262100Z AUTO VRB02KT 5000 BR OVC015 03/01 Q1035


Station Type Date Time Source
LFRM Decoded METAR 2022/01/26 21:00 UTC NOAA

Le Mans, France (LFRM) 47-56N 000-12E 52M
Jan 26, 2022 - 04:00 PM EST / 2022.01.26 2100 UTC
Wind: Variable at 2 MPH (2 KT):0
Visibility: 3 mile(s):0
Sky conditions: overcast
Weather: mist
Temperature: 37 F (3 C)
Dew Point: 33 F (1 C)
Relative Humidity: 86%
Pressure (altimeter): 30.56 in. Hg (1035 hPa)
ob: LFRM 262100Z AUTO VRB02KT 5000 BR OVC015 03/01 Q1035
cycle: 21

Station Type Date Time Source
LFRM TAF 2022/01/26 19:21 UTC NOAA

TAF TAF LFRM 261900Z 2619/2712 CNL

Example: see airport list